createdAt,value
2023-03-28T00:00:47.217Z,0.70
2023-03-28T00:03:19.313Z,0.60
2023-03-28T00:05:50.298Z,0.40
2023-03-28T00:08:18.991Z,1.00
2023-03-28T00:10:47.453Z,0.57
2023-03-28T00:13:15.997Z,0.40
2023-03-28T00:15:47.767Z,0.52
2023-03-28T00:18:17.495Z,0.52
2023-03-28T00:20:45.844Z,0.50
2023-03-28T00:23:14.602Z,0.63
2023-03-28T00:25:43.489Z,0.60
2023-03-28T00:28:11.920Z,0.50
2023-03-28T00:30:40.378Z,0.50
2023-03-28T00:33:08.909Z,0.60
2023-03-28T00:35:38.725Z,0.32
2023-03-28T00:38:07.136Z,0.60
2023-03-28T00:40:38.775Z,0.55
2023-03-28T00:43:07.289Z,0.93
2023-03-28T00:45:38.435Z,0.40
2023-03-28T00:48:14.702Z,0.60
2023-03-28T00:50:46.822Z,0.40
2023-03-28T00:53:16.391Z,0.63
2023-03-28T00:55:47.182Z,0.43
2023-03-28T00:58:17.092Z,0.55
2023-03-28T01:00:46.969Z,0.60
2023-03-28T01:03:16.060Z,0.40
2023-03-28T01:05:47.623Z,0.60
2023-03-28T01:08:18.485Z,0.55
2023-03-28T01:10:49.710Z,0.43
2023-03-28T01:13:20.628Z,0.63
2023-03-28T01:15:50.209Z,0.52
2023-03-28T01:18:18.679Z,0.40
2023-03-28T01:21:28.698Z,0.50
2023-03-28T01:24:22.281Z,0.60
2023-03-28T01:26:52.066Z,0.50
2023-03-28T01:29:41.587Z,0.52
2023-03-28T01:32:25.588Z,0.60
2023-03-28T01:35:16.520Z,0.47
2023-03-28T01:37:47.305Z,0.68
2023-03-28T01:40:24.193Z,0.50
2023-03-28T01:42:56.239Z,0.32
2023-03-28T01:45:28.381Z,0.93
2023-03-28T01:47:59.235Z,0.47
2023-03-28T01:50:30.952Z,0.45
2023-03-28T01:53:03.453Z,0.73
2023-03-28T01:55:41.569Z,0.50
2023-03-28T01:58:13.710Z,0.40
2023-03-28T02:00:43.309Z,0.50
2023-03-28T02:03:14.287Z,0.50
2023-03-28T02:05:42.734Z,0.40
2023-03-28T02:08:12.401Z,0.40
2023-03-28T02:10:41.984Z,0.40
2023-03-28T02:13:12.169Z,0.63
2023-03-28T02:15:40.549Z,0.90
2023-03-28T02:18:11.146Z,0.55
2023-03-28T02:20:39.519Z,0.80
2023-03-28T02:23:09.910Z,0.73
2023-03-28T02:25:39.963Z,0.70
2023-03-28T02:28:08.956Z,0.40
2023-03-28T02:30:37.378Z,0.40
2023-03-28T02:33:08.481Z,0.60
2023-03-28T02:35:46.635Z,0.60
2023-03-28T02:38:17.381Z,0.60
2023-03-28T02:40:53.411Z,0.45
2023-03-28T02:43:48.647Z,0.45
2023-03-28T02:46:20.865Z,0.60
2023-03-28T02:49:22.801Z,0.70
2023-03-28T02:51:53.009Z,0.50
2023-03-28T02:54:26.119Z,0.60
2023-03-28T02:57:01.831Z,0.65
2023-03-28T02:59:32.830Z,0.60
2023-03-28T03:02:01.251Z,0.35
2023-03-28T03:04:29.621Z,0.63
2023-03-28T03:07:02.000Z,0.50
2023-03-28T03:09:30.424Z,0.50
2023-03-28T03:12:00.125Z,0.47
2023-03-28T03:14:28.562Z,0.50
2023-03-28T03:16:57.391Z,0.73
2023-03-28T03:19:25.728Z,0.55
2023-03-28T03:21:54.277Z,0.60
2023-03-28T03:24:22.734Z,0.47
2023-03-28T03:26:51.088Z,0.40
2023-03-28T03:29:20.780Z,0.43
2023-03-28T03:31:49.221Z,0.57
2023-03-28T03:34:17.838Z,0.43
2023-03-28T03:36:46.191Z,0.35
2023-03-28T03:39:14.560Z,0.70
2023-03-28T03:41:42.937Z,0.52
2023-03-28T03:44:11.279Z,0.95
2023-03-28T03:46:41.048Z,0.30
2023-03-28T03:49:10.165Z,0.57
2023-03-28T03:51:39.421Z,0.60
2023-03-28T03:54:07.821Z,0.47
2023-03-28T03:56:36.312Z,0.52
2023-03-28T03:59:04.734Z,0.60
2023-03-28T04:01:34.322Z,0.47
2023-03-28T04:04:04.161Z,0.50
2023-03-28T04:06:32.509Z,0.55
2023-03-28T04:09:00.950Z,0.50
2023-03-28T04:11:29.297Z,0.68
2023-03-28T04:13:57.705Z,0.45
2023-03-28T04:16:26.080Z,0.63
2023-03-28T04:18:54.443Z,0.47
2023-03-28T04:21:27.432Z,0.35
2023-03-28T04:23:55.985Z,0.43
2023-03-28T04:26:26.911Z,0.38
2023-03-28T04:28:55.308Z,0.82
2023-03-28T04:31:29.452Z,0.65
2023-03-28T04:34:00.282Z,0.63
2023-03-28T04:36:30.033Z,0.60
2023-03-28T04:39:02.304Z,0.45
2023-03-28T04:41:32.101Z,0.40
2023-03-28T04:44:00.726Z,0.50
2023-03-28T04:46:29.594Z,0.57
2023-03-28T04:48:57.926Z,0.50
2023-03-28T04:51:28.473Z,0.60
2023-03-28T04:53:58.168Z,0.40
2023-03-28T04:56:27.164Z,0.70
2023-03-28T04:58:55.815Z,0.40
2023-03-28T05:01:26.786Z,0.50
2023-03-28T05:03:55.497Z,0.70
2023-03-28T05:06:25.896Z,0.60
2023-03-28T05:08:54.268Z,0.63
2023-03-28T05:11:23.943Z,0.60
2023-03-28T05:13:52.626Z,0.43
2023-03-28T05:16:20.984Z,0.50
2023-03-28T05:18:49.395Z,0.68
2023-03-28T05:21:17.711Z,0.50
2023-03-28T05:23:51.940Z,1.15
2023-03-28T05:26:20.992Z,0.57
2023-03-28T05:28:51.323Z,0.70
2023-03-28T05:31:19.704Z,0.80
2023-03-28T05:33:48.067Z,0.43
2023-03-28T05:36:16.492Z,0.57
2023-03-28T05:38:44.879Z,0.50
2023-03-28T05:41:13.235Z,0.60
2023-03-28T05:43:41.578Z,0.63
2023-03-28T05:46:11.482Z,0.60
2023-03-28T05:48:39.851Z,0.63
2023-03-28T05:51:08.417Z,0.50
2023-03-28T05:53:36.830Z,0.57
2023-03-28T05:56:05.423Z,0.70
2023-03-28T05:58:33.823Z,0.60
2023-03-28T06:01:02.985Z,0.52
2023-03-28T06:03:32.788Z,0.57
2023-03-28T06:06:01.807Z,0.45
2023-03-28T06:08:30.410Z,0.38
2023-03-28T06:11:02.126Z,0.60
2023-03-28T06:13:30.886Z,0.50
2023-03-28T06:15:59.239Z,0.40
2023-03-28T06:18:27.575Z,0.60
2023-03-28T06:20:57.254Z,1.10
2023-03-28T06:23:25.667Z,0.47
2023-03-28T06:25:54.038Z,0.70
2023-03-28T06:28:22.332Z,0.82
2023-03-28T06:30:50.751Z,0.70
2023-03-28T06:33:19.095Z,0.88
2023-03-28T06:35:47.487Z,0.70
2023-03-28T06:38:17.228Z,0.80
2023-03-28T06:40:45.836Z,0.70
2023-03-28T06:43:14.168Z,0.70
2023-03-28T06:45:42.516Z,0.93
2023-03-28T06:48:10.992Z,0.95
2023-03-28T06:50:39.370Z,0.47
2023-03-28T06:53:07.712Z,0.55
2023-03-28T06:55:37.581Z,0.70
2023-03-28T06:58:06.656Z,0.52
2023-03-28T07:00:35.044Z,0.50
2023-03-28T07:03:03.623Z,0.52
2023-03-28T07:05:32.083Z,0.55
2023-03-28T07:08:00.676Z,0.55
2023-03-28T07:10:29.037Z,0.47
2023-03-28T07:12:58.763Z,1.30
2023-03-28T07:15:27.120Z,0.95
2023-03-28T07:17:55.557Z,0.80
2023-03-28T07:20:23.897Z,0.88
2023-03-28T07:22:52.272Z,0.93
2023-03-28T07:25:20.909Z,0.90
2023-03-28T07:27:49.236Z,1.10
2023-03-28T07:30:19.013Z,1.00
2023-03-28T07:32:55.640Z,0.70
2023-03-28T07:35:28.369Z,0.70
2023-03-28T07:37:57.446Z,0.70
2023-03-28T07:40:26.014Z,5.53
2023-03-28T07:42:54.386Z,8.35
2023-03-28T07:45:24.088Z,8.25
2023-03-28T07:47:52.483Z,8.55
2023-03-28T07:50:22.387Z,8.40
2023-03-28T07:52:57.402Z,8.48
2023-03-28T07:55:26.466Z,8.23
2023-03-28T07:57:54.991Z,8.05
2023-03-28T08:00:24.990Z,7.07
2023-03-28T08:02:53.418Z,7.13
2023-03-28T08:05:24.105Z,6.97
2023-03-28T08:07:53.780Z,6.15
2023-03-28T08:10:22.269Z,6.78
2023-03-28T08:12:50.993Z,6.15
2023-03-28T08:15:19.612Z,5.03
2023-03-28T08:17:49.346Z,4.63
2023-03-28T08:20:19.684Z,5.35
2023-03-28T08:22:48.010Z,4.80
2023-03-28T08:25:16.604Z,3.95
2023-03-28T08:27:44.914Z,4.60
2023-03-28T08:30:13.496Z,4.53
2023-03-28T08:32:42.116Z,3.47
2023-03-28T08:35:12.165Z,3.13
2023-03-28T08:37:42.129Z,3.55
2023-03-28T08:40:14.861Z,2.95
2023-03-28T08:42:49.338Z,3.40
2023-03-28T08:45:26.394Z,3.00
2023-03-28T08:50:29.915Z,2.63
2023-03-28T08:52:58.241Z,2.40
2023-03-28T08:55:31.003Z,2.47
2023-03-28T08:57:59.364Z,3.10
2023-03-28T09:00:29.001Z,2.70
2023-03-28T09:02:57.564Z,1.85
2023-03-28T09:05:34.039Z,1.75
2023-03-28T09:08:07.901Z,1.80
2023-03-28T09:10:38.121Z,1.80
2023-03-28T09:13:11.410Z,2.17
2023-03-28T09:15:45.527Z,2.25
2023-03-28T09:18:44.080Z,1.77
2023-03-28T09:21:17.623Z,1.33
2023-03-28T09:23:53.554Z,1.90
2023-03-28T09:26:23.528Z,1.60
2023-03-28T09:28:55.437Z,1.88
2023-03-28T09:31:27.250Z,1.45
2023-03-28T09:33:58.366Z,1.42
2023-03-28T09:36:41.184Z,1.60
2023-03-28T09:39:20.684Z,1.48
2023-03-28T09:41:52.400Z,1.63
2023-03-28T09:44:22.376Z,1.60
2023-03-28T09:46:50.675Z,1.48
2023-03-28T09:49:20.205Z,1.25
2023-03-28T09:51:49.986Z,1.30
2023-03-28T09:54:18.787Z,1.58
2023-03-28T09:56:47.418Z,1.40
2023-03-28T09:59:26.228Z,1.38
2023-03-28T10:01:57.051Z,1.05
2023-03-28T10:04:33.518Z,1.23
2023-03-28T10:07:19.566Z,1.33
2023-03-28T10:09:48.836Z,1.02
2023-03-28T10:12:20.112Z,1.08
2023-03-28T10:14:48.553Z,1.13
2023-03-28T10:17:18.289Z,1.10
2023-03-28T10:19:47.255Z,0.80
2023-03-28T10:22:16.915Z,1.05
2023-03-28T10:24:47.267Z,1.05
2023-03-28T10:27:18.294Z,1.00
2023-03-28T10:29:46.663Z,0.88
2023-03-28T10:32:15.490Z,1.40
2023-03-28T10:34:44.780Z,0.80
2023-03-28T10:37:24.117Z,1.02
2023-03-28T10:40:05.657Z,0.82
2023-03-28T10:42:43.798Z,0.90
2023-03-28T10:45:20.893Z,0.90
2023-03-28T10:50:27.155Z,0.80
2023-03-28T10:52:58.564Z,0.60
2023-03-28T10:55:28.949Z,1.08
2023-03-28T10:58:00.266Z,0.82
2023-03-28T11:00:30.427Z,0.63
2023-03-28T11:03:19.959Z,0.80
2023-03-28T11:06:05.784Z,0.77
2023-03-28T11:08:42.884Z,0.90
2023-03-28T11:11:18.979Z,0.80
2023-03-28T11:13:51.190Z,0.75
2023-03-28T11:16:22.845Z,0.90
2023-03-28T11:18:59.240Z,0.85
2023-03-28T11:21:30.654Z,0.73
2023-03-28T11:24:04.376Z,0.75
2023-03-28T11:26:40.013Z,1.10
2023-03-28T11:29:33.180Z,0.80
2023-03-28T11:32:13.928Z,0.75
2023-03-28T11:34:44.534Z,0.60
2023-03-28T11:37:17.507Z,0.60
2023-03-28T11:39:48.011Z,0.65
2023-03-28T11:42:21.516Z,0.80
2023-03-28T11:44:53.169Z,0.65
2023-03-28T11:47:23.412Z,0.90
2023-03-28T11:49:53.108Z,0.77
2023-03-28T11:52:23.970Z,0.90
2023-03-28T11:54:54.550Z,0.95
2023-03-28T11:57:28.884Z,0.80
2023-03-28T11:59:59.197Z,0.93
2023-03-28T12:02:39.046Z,0.70
2023-03-28T12:05:10.255Z,0.60
2023-03-28T12:07:40.268Z,0.70
2023-03-28T12:10:13.119Z,0.70
2023-03-28T12:12:46.103Z,0.90
2023-03-28T12:15:15.568Z,0.75
2023-03-28T12:17:45.471Z,0.55
2023-03-28T12:20:16.811Z,0.45
2023-03-28T12:22:46.486Z,0.82
2023-03-28T12:25:18.356Z,0.50
2023-03-28T12:27:54.584Z,0.60
2023-03-28T12:30:25.833Z,0.50
2023-03-28T12:32:59.525Z,0.50
2023-03-28T12:35:30.795Z,0.60
2023-03-28T12:38:18.941Z,0.60
2023-03-28T12:40:54.457Z,0.75
2023-03-28T12:43:27.284Z,0.65
2023-03-28T12:45:57.606Z,0.43
2023-03-28T12:48:32.248Z,0.95
2023-03-28T12:51:01.858Z,0.52
2023-03-28T12:53:31.729Z,0.90
2023-03-28T12:56:00.574Z,0.70
2023-03-28T12:58:30.740Z,0.52
2023-03-28T13:01:22.006Z,0.70
2023-03-28T13:03:58.794Z,0.70
2023-03-28T13:06:32.770Z,0.60
2023-03-28T13:09:08.217Z,0.70
2023-03-28T13:11:40.991Z,0.70
2023-03-28T13:14:29.251Z,0.50
2023-03-28T13:16:58.360Z,0.65
2023-03-28T13:19:48.510Z,0.43
2023-03-28T13:22:28.609Z,0.50
2023-03-28T13:25:16.781Z,0.80
2023-03-28T13:27:45.193Z,0.52
2023-03-28T13:30:17.395Z,0.63
2023-03-28T13:32:46.786Z,0.60
2023-03-28T13:35:40.328Z,0.63
2023-03-28T13:38:25.234Z,0.50
2023-03-28T13:40:55.702Z,0.65
2023-03-28T13:43:28.392Z,0.40
2023-03-28T13:45:59.633Z,0.57
2023-03-28T13:48:32.415Z,0.68
2023-03-28T13:51:02.083Z,0.60
2023-03-28T13:53:44.753Z,0.70
2023-03-28T13:56:24.222Z,0.50
2023-03-28T13:58:53.392Z,0.68
2023-03-28T14:01:25.410Z,0.80
2023-03-28T14:03:54.268Z,0.70
2023-03-28T14:06:23.585Z,0.50
2023-03-28T14:08:52.905Z,0.60
2023-03-28T14:11:23.417Z,0.40
2023-03-28T14:13:52.371Z,0.60
2023-03-28T14:16:21.151Z,0.68
2023-03-28T14:18:51.254Z,0.60
2023-03-28T14:21:19.591Z,0.50
2023-03-28T14:23:57.045Z,0.50
2023-03-28T14:26:27.459Z,0.57
2023-03-28T14:28:59.579Z,0.50
2023-03-28T14:31:32.256Z,0.50
2023-03-28T14:34:04.972Z,0.70
2023-03-28T14:36:37.761Z,0.60
2023-03-28T14:39:13.383Z,0.60
2023-03-28T14:41:42.293Z,0.47
2023-03-28T14:44:10.683Z,0.60
2023-03-28T14:46:39.110Z,0.50
2023-03-28T14:49:10.234Z,0.47
2023-03-28T14:51:42.570Z,0.60
2023-03-28T14:54:15.500Z,0.45
2023-03-28T14:56:44.151Z,0.57
2023-03-28T14:59:15.849Z,0.70
2023-03-28T15:01:44.674Z,0.40
2023-03-28T15:04:14.449Z,0.43
2023-03-28T15:06:42.909Z,0.43
2023-03-28T15:09:12.571Z,0.40
2023-03-28T15:11:43.491Z,0.60
2023-03-28T15:14:14.990Z,0.47
2023-03-28T15:16:43.988Z,0.50
2023-03-28T15:19:18.445Z,0.52
2023-03-28T15:21:52.912Z,0.40
2023-03-28T15:24:21.241Z,0.50
2023-03-28T15:26:51.042Z,0.55
2023-03-28T15:29:20.185Z,0.68
2023-03-28T15:31:48.596Z,0.52
2023-03-28T15:34:22.287Z,0.52
2023-03-28T15:36:52.789Z,0.52
2023-03-28T15:39:24.375Z,0.52
2023-03-28T15:41:54.572Z,0.40
2023-03-28T15:44:30.485Z,0.50
2023-03-28T15:47:00.662Z,0.50
2023-03-28T15:49:30.451Z,0.43
2023-03-28T15:52:02.693Z,0.45
2023-03-28T15:54:32.017Z,0.60
2023-03-28T15:57:01.648Z,0.50
2023-03-28T15:59:33.351Z,0.60
2023-03-28T16:02:19.842Z,0.45
2023-03-28T16:05:06.142Z,1.38
2023-03-28T16:07:36.233Z,1.02
2023-03-28T16:10:05.072Z,0.93
2023-03-28T16:12:33.375Z,1.00
2023-03-28T16:15:02.081Z,0.90
2023-03-28T16:17:31.066Z,0.70
2023-03-28T16:19:59.508Z,0.75
2023-03-28T16:22:29.159Z,0.77
2023-03-28T16:24:57.561Z,1.10
2023-03-28T16:27:25.932Z,1.00
2023-03-28T16:29:54.261Z,0.82
2023-03-28T16:32:23.856Z,1.30
2023-03-28T16:34:52.298Z,1.00
2023-03-28T16:37:20.709Z,1.00
2023-03-28T16:39:50.450Z,1.40
2023-03-28T16:42:20.865Z,0.95
2023-03-28T16:44:49.252Z,0.93
2023-03-28T16:47:17.601Z,1.10
2023-03-28T16:49:46.180Z,1.20
2023-03-28T16:52:14.627Z,0.63
2023-03-28T16:54:44.114Z,0.85
2023-03-28T16:57:13.817Z,0.50
2023-03-28T16:59:42.232Z,0.82
2023-03-28T17:02:10.863Z,1.10
2023-03-28T17:04:39.228Z,1.00
2023-03-28T17:07:07.635Z,1.05
2023-03-28T17:09:36.149Z,1.10
2023-03-28T17:12:04.694Z,0.93
2023-03-28T17:14:36.101Z,1.20
2023-03-28T17:17:04.541Z,1.10
2023-03-28T17:19:33.063Z,1.20
2023-03-28T17:22:04.647Z,0.82
2023-03-28T17:24:33.088Z,1.20
2023-03-28T17:27:01.723Z,0.75
2023-03-28T17:29:30.039Z,1.17
2023-03-28T17:31:59.755Z,1.20
2023-03-28T17:34:31.907Z,1.30
2023-03-28T17:37:00.485Z,1.00
2023-03-28T17:39:29.444Z,1.00
2023-03-28T17:41:57.833Z,1.00
2023-03-28T17:44:26.437Z,1.33
2023-03-28T17:46:56.623Z,0.98
2023-03-28T17:49:26.402Z,1.10
2023-03-28T17:51:56.707Z,1.05
2023-03-28T17:54:25.580Z,0.90
2023-03-28T17:56:53.989Z,1.02
2023-03-28T17:59:22.617Z,1.02
2023-03-28T18:01:51.068Z,0.80
2023-03-28T18:04:22.110Z,1.17
2023-03-28T18:06:51.832Z,0.95
2023-03-28T18:09:20.175Z,0.98
2023-03-28T18:11:49.004Z,1.45
2023-03-28T18:14:17.895Z,1.40
2023-03-28T18:16:46.812Z,0.70
2023-03-28T18:19:18.276Z,1.10
2023-03-28T18:21:46.634Z,1.13
2023-03-28T18:24:16.291Z,1.00
2023-03-28T18:26:44.990Z,0.90
2023-03-28T18:29:13.412Z,1.00
2023-03-28T18:31:42.517Z,0.85
2023-03-28T18:34:11.862Z,0.82
2023-03-28T18:36:42.258Z,1.00
2023-03-28T18:39:10.949Z,1.20
2023-03-28T18:41:40.608Z,1.05
2023-03-28T18:44:08.931Z,0.90
2023-03-28T18:46:37.365Z,1.02
2023-03-28T18:49:06.436Z,0.90
2023-03-28T18:51:35.476Z,1.05
2023-03-28T18:54:03.845Z,1.00
2023-03-28T18:56:32.944Z,0.80
2023-03-28T18:59:03.987Z,0.82
2023-03-28T19:01:34.093Z,0.75
2023-03-28T19:04:02.610Z,0.90
2023-03-28T19:06:31.140Z,1.10
2023-03-28T19:08:59.478Z,0.80
2023-03-28T19:11:28.174Z,0.85
2023-03-28T19:13:56.538Z,0.90
2023-03-28T19:16:26.646Z,0.75
2023-03-28T19:18:54.977Z,0.85
2023-03-28T19:21:23.318Z,0.80
2023-03-28T19:23:52.595Z,0.80
2023-03-28T19:26:21.525Z,1.10
2023-03-28T19:28:50.251Z,0.90
2023-03-28T19:31:20.219Z,0.88
2023-03-28T19:33:49.942Z,0.95
2023-03-28T19:36:18.413Z,0.90
2023-03-28T19:38:46.807Z,0.70
2023-03-28T19:41:17.899Z,0.82
2023-03-28T19:43:46.289Z,0.90
2023-03-28T19:46:16.546Z,0.70
2023-03-28T19:48:45.005Z,0.55
2023-03-28T19:51:15.405Z,0.63
2023-03-28T19:53:43.752Z,0.80
2023-03-28T19:56:12.167Z,0.60
2023-03-28T19:58:40.480Z,0.80
2023-03-28T20:01:08.871Z,0.73
2023-03-28T20:03:37.219Z,0.60
2023-03-28T20:06:06.793Z,0.68
2023-03-28T20:08:36.519Z,0.80
2023-03-28T20:11:05.069Z,0.63
2023-03-28T20:13:33.412Z,0.82
2023-03-28T20:16:02.698Z,0.80
2023-03-28T20:18:32.627Z,0.65
2023-03-28T20:21:05.096Z,0.60
2023-03-28T20:23:33.497Z,0.70
2023-03-28T20:26:14.093Z,0.70
2023-03-28T20:28:42.481Z,0.60
2023-03-28T20:31:12.446Z,0.65
2023-03-28T20:33:41.128Z,0.65
2023-03-28T20:36:09.613Z,0.60
2023-03-28T20:38:37.936Z,0.60
2023-03-28T20:41:11.998Z,0.60
2023-03-28T20:43:47.003Z,0.80
2023-03-28T20:46:18.227Z,0.47
2023-03-28T20:48:47.989Z,0.57
2023-03-28T20:51:17.506Z,0.63
2023-03-28T20:53:47.487Z,0.60
2023-03-28T20:56:17.692Z,0.50
2023-03-28T20:58:49.285Z,0.60
2023-03-28T21:01:25.188Z,0.50
2023-03-28T21:03:54.601Z,0.50
2023-03-28T21:06:25.164Z,0.60
2023-03-28T21:08:54.277Z,0.30
2023-03-28T21:11:26.239Z,0.70
2023-03-28T21:13:54.705Z,0.57
2023-03-28T21:16:23.232Z,0.70
2023-03-28T21:18:52.032Z,0.45
2023-03-28T21:21:20.899Z,0.50
2023-03-28T21:23:49.249Z,0.50
2023-03-28T21:26:18.349Z,0.50
2023-03-28T21:28:48.169Z,0.80
2023-03-28T21:31:18.162Z,0.55
2023-03-28T21:33:46.709Z,0.47
2023-03-28T21:36:16.828Z,0.40
2023-03-28T21:38:45.575Z,0.50
2023-03-28T21:41:14.109Z,0.30
2023-03-28T21:43:42.459Z,1.08
2023-03-28T21:46:13.472Z,0.70
2023-03-28T21:48:43.292Z,0.40
2023-03-28T21:51:11.972Z,0.60
2023-03-28T21:53:42.219Z,0.50
2023-03-28T21:56:11.626Z,1.15
2023-03-28T21:58:40.066Z,0.40
2023-03-28T22:01:08.500Z,0.50
2023-03-28T22:03:38.964Z,1.35
2023-03-28T22:06:08.246Z,0.80
2023-03-28T22:08:36.653Z,0.50
2023-03-28T22:11:13.364Z,0.80
2023-03-28T22:13:41.714Z,0.60
2023-03-28T22:16:12.756Z,0.77
2023-03-28T22:18:50.087Z,0.60
2023-03-28T22:21:18.829Z,0.80
2023-03-28T22:23:47.845Z,0.80
2023-03-28T22:26:16.468Z,0.70
2023-03-28T22:28:44.847Z,0.70
2023-03-28T22:31:13.187Z,0.60
2023-03-28T22:33:43.077Z,0.65
2023-03-28T22:36:12.900Z,0.77
2023-03-28T22:38:41.227Z,0.80
2023-03-28T22:41:09.539Z,0.52
2023-03-28T22:43:38.340Z,1.10
2023-03-28T22:46:07.265Z,0.70
2023-03-28T22:48:38.131Z,0.52
2023-03-28T22:51:11.747Z,0.60
2023-03-28T22:53:40.279Z,0.70
2023-03-28T22:56:09.676Z,0.75
2023-03-28T22:58:38.153Z,0.60
2023-03-28T23:01:07.354Z,0.45
2023-03-28T23:03:35.755Z,0.60
2023-03-28T23:06:06.110Z,0.55
2023-03-28T23:08:36.224Z,0.70
2023-03-28T23:11:04.840Z,0.38
2023-03-28T23:13:33.226Z,0.60
2023-03-28T23:16:02.307Z,0.50
2023-03-28T23:18:32.832Z,0.70
2023-03-28T23:21:01.939Z,0.60
2023-03-28T23:23:32.171Z,0.50
2023-03-28T23:26:01.817Z,0.70
2023-03-28T23:28:30.410Z,0.50
2023-03-28T23:30:58.850Z,0.60
2023-03-28T23:33:27.217Z,0.50
2023-03-28T23:35:55.542Z,0.80
2023-03-28T23:38:24.162Z,0.50
2023-03-28T23:40:52.500Z,1.20
2023-03-28T23:43:22.295Z,0.50
2023-03-28T23:45:50.680Z,0.40
2023-03-28T23:48:19.074Z,0.68
2023-03-28T23:50:47.453Z,0.98
2023-03-28T23:53:15.887Z,0.60
2023-03-28T23:55:44.484Z,0.60
2023-03-28T23:58:12.801Z,0.50
